• Join FlightAware (Why Join?)
  • Login
  • US Flag 
04:17AM EDT


 

Airport Tracker/Info


-or-


 

Live Flight TrackerFlight Track Log ✈ SWA1319 ✈ 29-Apr-2013 ✈ KBHM - KDAL

Flight Track Log - Related Links

Times and Time Zones

All times are in EDT time to prevent confusion due to time zone crossing. See the SWA1319 flight status page for this flight to view local times or setup timezone preferences in your user account.

Time Position Orientation Groundspeed Altitude Reporting Facility
EDT Latitude Longitude Course Direction KTS MPH feet Rate Location/Type
02:12PM 33.6028 -86.6975 52° Northeast 210 242 3,000  Level Atlanta Center
02:13PM 33.6506 -86.7089 349° North 216 249 5,400 2,580 Climbing Atlanta Center
02:14PM 33.6528 -86.7939 272° West 170 196 7,900 2,640 Climbing Atlanta Center
02:15PM 33.6444 -86.8858 264° West 215 247 10,700 2,220 Climbing Atlanta Center
02:16PM 33.6336 -86.9978 263° West 286 329 12,400 2,040 Climbing Atlanta Center
02:17PM 33.6200 -87.1172 262° West 328 377 14,800 2,400 Climbing Atlanta Center
02:18PM 33.6086 -87.2439 264° West 365 420 17,200 2,160 Climbing Atlanta Center
02:19PM 33.5878 -87.4572 263° West 400 460 20,600 1,920 Climbing Memphis Center
02:20PM 33.5742 -87.5922 263° West 411 473 22,300 1,740 Climbing Memphis Center
02:21PM 33.5625 -87.7297 264° West 416 479 24,100 1,680 Climbing Memphis Center
02:22PM 33.5486 -87.8697 263° West 416 479 25,700 1,380 Climbing Memphis Center
02:23PM 33.5347 -88.0122 263° West 427 491 26,900 1,140 Climbing Memphis Center
02:24PM 33.5186 -88.1594 263° West 437 503 28,000 600 Climbing Memphis Center
02:25PM 33.4917 -88.2872 256° West 442 509 28,100 1,080 Climbing Memphis Center
02:26PM 33.4583 -88.4275 254° West 442 509 30,200 1,740 Climbing Memphis Center
02:27PM 33.4208 -88.5628 252° West 442 509 31,600 1,200 Climbing Memphis Center
02:28PM 33.3894 -88.7003 255° West 437 503 32,700 1,200 Climbing Memphis Center
02:29PM 33.3556 -88.8350 253° West 437 503 34,000 1,020 Climbing Memphis Center
02:30PM 33.3239 -88.9700 254° West 432 497 34,800 960 Climbing Memphis Center
02:31PM 33.2917 -89.0997 253° West 420 483 36,000 600 Climbing Memphis Center
02:32PM 33.2556 -89.2319 252° West 415 478 36,000  Level Memphis Center
02:33PM 33.2253 -89.3589 254° West 415 478 36,000  Level Memphis Center
02:34PM 33.1886 -89.5008 253° West 415 478 36,000  Level Memphis Center
02:35PM 33.1583 -89.6253 254° West 409 471 36,000  Level Memphis Center
02:36PM 33.1275 -89.7519 254° West 404 465 36,000  Level Memphis Center
02:37PM 33.0947 -89.8811 253° West 404 465 36,000  Level Memphis Center
02:38PM 33.0617 -90.0078 253° West 404 465 36,000  Level Memphis Center
02:39PM 33.0267 -90.1317 251° West 404 465 36,000  Level Memphis Center
02:40PM 32.9975 -90.2458 253° West 404 465 36,000  Level Memphis Center
02:41PM 32.9642 -90.3722 253° West 404 465 36,000  Level Memphis Center
02:42PM 32.9328 -90.4983 254° West 404 465 36,000  Level Memphis Center
02:43PM 32.8972 -90.6244 251° West 404 465 36,000  Level Memphis Center
02:44PM 32.8633 -90.7531 253° West 404 465 36,000  Level Memphis Center
02:45PM 32.8294 -90.8814 253° West 404 465 36,000  Level Memphis Center
02:46PM 32.7933 -91.0097 252° West 404 465 36,000  Level Memphis Center
02:47PM 32.7592 -91.1378 252° West 404 465 36,000  Level Memphis Center
02:49PM 32.6919 -91.4058 253° West 395 455 36,000  Level Fort Worth Center
02:50PM 32.6561 -91.5314 251° West 406 467 36,000  Level Fort Worth Center
02:51PM 32.6203 -91.6594 252° West 411 473 36,000 -360 Level Fort Worth Center
02:52PM 32.6033 -91.7914 261° West 406 467 35,300 -1,020 Descending Fort Worth Center
02:53PM 32.5967 -91.9247 267° West 406 467 34,000 -660 Descending Fort Worth Center
02:54PM 32.5903 -92.0658 267° West 416 479 34,000  Level Fort Worth Center
02:55PM 32.5856 -92.2042 268° West 416 479 34,000  Level Fort Worth Center
02:56PM 32.5758 -92.3228 264° West 429 494 34,000  Level Fort Worth Center
02:57PM 32.5672 -92.4736 266° West 424 488 34,000  Level Fort Worth Center
02:58PM 32.5633 -92.5872 268° West 411 473 34,000  Level Fort Worth Center
02:59PM 32.5558 -92.7208 266° West 411 473 34,000  Level Fort Worth Center
03:00PM 32.5464 -92.8569 265° West 411 473 34,000  Level Fort Worth Center
03:01PM 32.5386 -92.9878 266° West 406 467 34,000  Level Fort Worth Center
03:02PM 32.5286 -93.1236 265° West 411 473 34,000  Level Fort Worth Center
03:03PM 32.5183 -93.2547 265° West 411 473 34,000  Level Fort Worth Center
03:04PM 32.5122 -93.3856 267° West 406 467 34,000  Level Fort Worth Center
03:05PM 32.5039 -93.5189 266° West 406 467 34,000  Level Fort Worth Center
03:06PM 32.4953 -93.6522 266° West 411 473 34,000  Level Fort Worth Center
03:07PM 32.4847 -93.7833 265° West 406 467 34,000 -180 Level Fort Worth Center
03:08PM 32.4694 -93.9119 262° West 406 467 33,700 -600 Descending Fort Worth Center
03:09PM 32.4375 -94.0436 254° West 411 473 32,800 -900 Descending Fort Worth Center
03:10PM 32.4075 -94.1728 255° West 416 479 31,900 -960 Descending Fort Worth Center
03:11PM 32.4008 -94.3206 267° West 416 479 30,900 -1,020 Descending Fort Worth Center
03:12PM 32.4000 -94.4583 270° West 410 472 29,900 -1,080 Descending Fort Worth Center
03:13PM 32.3989 -94.5936 269° West 403 464 28,800 -1,080 Descending Fort Worth Center
03:14PM 32.3975 -94.7242 269° West 403 464 27,800 -1,020 Descending Fort Worth Center
03:15PM 32.3919 -94.8547 267° West 408 470 26,800 -1,020 Descending Fort Worth Center
03:16PM 32.3947 -94.9925 271° West 414 476 25,800 -1,080 Descending Fort Worth Center
03:17PM 32.3931 -95.1228 269° West 414 476 24,700 -900 Descending Fort Worth Center
03:18PM 32.3911 -95.2533 269° West 404 465 24,000 -360 Descending Fort Worth Center
03:19PM 32.4119 -95.3808 281° West 399 459 24,000 -600 Level Fort Worth Center
03:20PM 32.4308 -95.5108 280° West 399 459 22,900 -1,680 Descending Fort Worth Center
03:21PM 32.4514 -95.6333 281° West 404 465 20,700 -2,160 Descending Fort Worth Center
03:22PM 32.4697 -95.7586 280° West 392 451 18,600 -2,100 Descending Fort Worth Center
03:23PM 32.4878 -95.8642 281° West 381 438 16,600 -2,100 Descending Fort Worth Center
03:24PM 32.5081 -95.9919 281° West 368 423 14,400 -2,100 Descending Fort Worth Center
03:25PM 32.5239 -96.0928 281° West 363 418 12,500 -2,040 Descending Fort Worth Center
03:26PM 32.5439 -96.2156 281° West 352 405 10,400 -1,620 Descending Fort Worth Center
03:27PM 32.5572 -96.3067 280° West 330 380 9,300 -720 Descending Fort Worth Center
03:28PM 32.6017 -96.4000 299° West 300 345 9,000 -180 Descending Fort Worth Center
03:29PM 32.6442 -96.4733 305° West 294 338 9,000 -360 Level Fort Worth Center
03:30PM 32.7031 -96.5567 310° West 301 346 8,300 -900 Descending Fort Worth Center
03:31PM 32.7600 -96.6231 316° Northwest 295 339 7,300 -1,500 Descending Fort Worth Center
03:32PM 32.8189 -96.6892 317° Northwest 290 334 5,400 -1,680 Descending Fort Worth Center
03:33PM 32.8333 -96.7167 302° West 292 336 5,100 -960 Descending Dallas / Fort Worth TRACON
03:34PM 32.9000 -96.7833 320° Northwest 267 307 4,100 -600 Descending Dallas / Fort Worth TRACON
03:35PM 32.9500 -96.8167 331° Northwest 208 239 3,900 -780 Descending Dallas / Fort Worth TRACON
03:36PM 32.9500 -96.8833 270° West 183 211 2,700 -960 Descending Dallas / Fort Worth TRACON
03:37PM 32.9167 -96.9000 203° Southwest 167 192 2,000 -780 Descending Dallas / Fort Worth TRACON
03:38PM 32.8833 -96.8833 157° South 128 147 1,200  Descending Dallas / Fort Worth TRACON
03:39PM 32.8967 -96.7925 80° East 143 165 2,000 420 Climbing Fort Worth Center